createdAt,value
2017-06-19T00:00:52.225Z,0
2017-06-19T00:03:16.551Z,0
2017-06-19T00:05:41.729Z,0
2017-06-19T00:08:06.021Z,0
2017-06-19T00:10:16.522Z,0
2017-06-19T00:12:40.772Z,0
2017-06-19T00:15:05.048Z,0
2017-06-19T00:17:20.794Z,0
2017-06-19T00:19:45.010Z,0
2017-06-19T00:21:52.317Z,0
2017-06-19T00:24:16.583Z,0
2017-06-19T00:26:23.941Z,0
2017-06-19T00:28:39.715Z,0
2017-06-19T00:30:55.510Z,0
2017-06-19T00:33:19.718Z,0
2017-06-19T00:35:35.468Z,0
2017-06-19T00:37:59.589Z,0
2017-06-19T00:40:24.814Z,0
2017-06-19T00:42:50.008Z,0
2017-06-19T00:45:06.678Z,0
2017-06-19T00:47:30.912Z,0
2017-06-19T00:49:41.355Z,0
2017-06-19T00:51:57.049Z,0
2017-06-19T00:54:21.235Z,0
2017-06-19T00:56:36.939Z,0
2017-06-19T00:59:02.131Z,0
2017-06-19T01:01:18.829Z,0
2017-06-19T01:03:42.925Z,0
2017-06-19T01:06:07.111Z,0
2017-06-19T01:08:40.195Z,0
2017-06-19T01:11:04.380Z,0
2017-06-19T01:13:28.449Z,0
2017-06-19T01:15:45.114Z,0
2017-06-19T01:18:00.801Z,0
2017-06-19T01:20:24.914Z,0
2017-06-19T01:22:40.621Z,0
2017-06-19T01:24:47.846Z,0
2017-06-19T01:27:11.867Z,0
2017-06-19T01:29:35.957Z,0
2017-06-19T01:32:00.041Z,0
2017-06-19T01:34:24.121Z,0
2017-06-19T01:36:39.797Z,0
2017-06-19T01:39:03.885Z,0
2017-06-19T01:41:27.975Z,0
2017-06-19T01:43:52.058Z,0
2017-06-19T01:45:59.271Z,0
2017-06-19T01:48:23.420Z,0
2017-06-19T01:50:47.521Z,0
2017-06-19T01:53:11.685Z,0
2017-06-19T01:55:35.773Z,0
2017-06-19T01:57:59.869Z,0
2017-06-19T02:00:15.502Z,0
2017-06-19T02:02:31.079Z,0
2017-06-19T02:04:55.220Z,0
2017-06-19T02:07:19.283Z,0
2017-06-19T02:09:34.964Z,0
2017-06-19T02:11:59.040Z,0
2017-06-19T02:14:23.027Z,0
2017-06-19T02:16:32.918Z,0
2017-06-19T02:18:56.955Z,0
2017-06-19T02:21:12.642Z,0
2017-06-19T02:23:19.849Z,0
2017-06-19T02:25:43.895Z,0
2017-06-19T02:28:07.986Z,0
2017-06-19T02:30:32.070Z,0
2017-06-19T02:32:56.165Z,0
2017-06-19T02:35:20.233Z,0
2017-06-19T02:37:30.219Z,0
2017-06-19T02:39:54.266Z,0
2017-06-19T02:42:09.916Z,4
2017-06-19T02:44:17.118Z,0
2017-06-19T02:46:41.219Z,4
2017-06-19T02:49:05.290Z,4
2017-06-19T02:51:29.371Z,4
2017-06-19T02:53:53.461Z,4
2017-06-19T02:56:17.537Z,8
2017-06-19T03:00:43.536Z,12
2017-06-19T03:03:07.654Z,20
2017-06-19T03:05:23.319Z,28
2017-06-19T03:07:47.334Z,36
2017-06-19T03:10:11.391Z,48
2017-06-19T03:12:35.492Z,56
2017-06-19T03:14:59.569Z,72
2017-06-19T03:17:23.646Z,88
2017-06-19T03:19:47.647Z,108
2017-06-19T03:22:11.712Z,128
2017-06-19T03:24:35.810Z,156
2017-06-19T03:26:51.375Z,180
2017-06-19T03:29:15.356Z,208
2017-06-19T03:31:39.332Z,244
2017-06-19T03:33:54.872Z,272
2017-06-19T03:36:18.892Z,312
2017-06-19T03:38:42.884Z,348
2017-06-19T03:40:58.423Z,384
2017-06-19T03:43:22.438Z,424
2017-06-19T03:45:46.524Z,472
2017-06-19T03:48:10.607Z,508
2017-06-19T03:50:34.694Z,552
2017-06-19T03:52:58.668Z,592
2017-06-19T03:55:14.253Z,636
2017-06-19T03:57:38.217Z,676
2017-06-19T04:00:02.211Z,716
2017-06-19T04:02:17.748Z,756
2017-06-19T04:04:41.754Z,800
2017-06-19T04:07:05.751Z,840
2017-06-19T04:09:07.698Z,876
2017-06-19T04:11:31.812Z,940
2017-06-19T04:13:55.892Z,1024
2017-06-19T04:18:21.801Z,1216
2017-06-19T04:20:37.474Z,1644
2017-06-19T04:23:01.597Z,2676
2017-06-19T04:25:25.806Z,2756
2017-06-19T04:27:50.141Z,2700
2017-06-19T04:30:14.680Z,3116
2017-06-19T04:34:33.795Z,3348
2017-06-19T04:36:58.763Z,3556
2017-06-19T04:39:23.907Z,3724
2017-06-19T04:41:40.639Z,3888
2017-06-19T04:44:05.992Z,4056
2017-06-19T04:46:22.894Z,4208
2017-06-19T04:48:48.472Z,4372
2017-06-19T04:51:14.235Z,4536
2017-06-19T04:53:31.571Z,4704
2017-06-19T04:55:57.507Z,4844
2017-06-19T05:00:25.951Z,5168
2017-06-19T05:04:54.485Z,5484
2017-06-19T05:07:20.855Z,5648
2017-06-19T05:09:47.307Z,5812
2017-06-19T05:12:13.870Z,5976
2017-06-19T05:14:32.982Z,6140
2017-06-19T05:16:59.723Z,6340
2017-06-19T05:19:17.874Z,6516
2017-06-19T05:21:36.126Z,6728
2017-06-19T05:24:02.973Z,6984
2017-06-19T05:26:21.235Z,7272
2017-06-19T05:28:47.373Z,7668
2017-06-19T05:31:14.330Z,8080
2017-06-19T05:33:48.967Z,8448
2017-06-19T05:36:31.926Z,8824
2017-06-19T05:38:50.484Z,9248
2017-06-19T05:43:20.313Z,10008
2017-06-19T05:45:48.618Z,10272
2017-06-19T05:48:15.894Z,10648
2017-06-19T05:50:34.630Z,10840
2017-06-19T05:52:46.041Z,11000
2017-06-19T05:54:57.472Z,11192
2017-06-19T05:58:52.304Z,11568
2017-06-19T06:01:19.818Z,11672
2017-06-19T06:03:47.288Z,11904
2017-06-19T06:06:06.121Z,12252
2017-06-19T06:08:33.733Z,12812
2017-06-19T06:11:01.296Z,13136
2017-06-19T06:13:28.971Z,14016
2017-06-19T06:15:47.954Z,14944
2017-06-19T06:18:15.607Z,16384
2017-06-19T06:20:34.578Z,18336
2017-06-19T06:27:07.249Z,25440
2017-06-19T06:29:34.979Z,28000
2017-06-19T06:31:55.123Z,29536
2017-06-19T06:34:22.952Z,31104
2017-06-19T06:36:50.823Z,25696
2017-06-19T06:39:10.035Z,10496
2017-06-19T06:41:37.841Z,9216
2017-06-19T06:44:05.612Z,9272
2017-06-19T06:46:33.243Z,9528
2017-06-19T06:49:00.780Z,9612
2017-06-19T06:51:19.580Z,9512
2017-06-19T06:53:46.817Z,9332
2017-06-19T06:56:13.834Z,9268
2017-06-19T06:58:40.727Z,9220
2017-06-19T07:00:58.869Z,9356
2017-06-19T07:03:25.463Z,9448
2017-06-19T07:05:51.873Z,9004
2017-06-19T07:08:18.293Z,8844
2017-06-19T07:10:44.501Z,9300
2017-06-19T07:13:10.703Z,10404
2017-06-19T07:15:36.808Z,11452
2017-06-19T07:18:02.849Z,13400
2017-06-19T07:20:28.862Z,15936
2017-06-19T07:22:54.886Z,15744
2017-06-19T07:25:20.922Z,16608
2017-06-19T07:27:46.946Z,19104
2017-06-19T07:30:04.428Z,20160
2017-06-19T07:32:30.512Z,20480
2017-06-19T07:34:56.543Z,17760
2017-06-19T07:37:22.566Z,14900
2017-06-19T07:39:48.600Z,13684
2017-06-19T07:44:17.037Z,12212
2017-06-19T07:46:43.119Z,11784
2017-06-19T07:49:09.148Z,11448
2017-06-19T07:51:35.173Z,11232
2017-06-19T07:54:01.203Z,10600
2017-06-19T07:56:27.224Z,10264
2017-06-19T07:58:53.256Z,10208
2017-06-19T08:01:20.310Z,10016
2017-06-19T08:03:46.334Z,9932
2017-06-19T08:06:03.822Z,9852
2017-06-19T08:08:29.918Z,9656
2017-06-19T08:10:55.936Z,9596
2017-06-19T08:13:22.053Z,9640
2017-06-19T08:15:48.118Z,9520
2017-06-19T08:18:15.255Z,9428
2017-06-19T08:20:41.366Z,9504
2017-06-19T08:22:58.901Z,9364
2017-06-19T08:25:17.456Z,9388
2017-06-19T08:27:35.035Z,9348
2017-06-19T08:29:53.543Z,9284
2017-06-19T08:32:20.710Z,9364
2017-06-19T08:34:46.831Z,9532
2017-06-19T08:37:04.400Z,9712
2017-06-19T08:39:23.029Z,9840
2017-06-19T08:43:51.561Z,9680
2017-06-19T08:46:17.763Z,9684
2017-06-19T08:48:44.013Z,9788
2017-06-19T08:51:01.673Z,9696
2017-06-19T08:53:29.007Z,9628
2017-06-19T08:55:55.328Z,9300
2017-06-19T08:58:21.696Z,9140
2017-06-19T09:00:47.907Z,9068
2017-06-19T09:03:14.253Z,8892
2017-06-19T09:05:32.036Z,8728
2017-06-19T09:07:58.434Z,8616
2017-06-19T09:10:24.766Z,8544
2017-06-19T09:12:51.102Z,8316
2017-06-19T09:15:17.534Z,8128
2017-06-19T09:17:43.956Z,8040
2017-06-19T09:20:10.311Z,7924
2017-06-19T09:22:36.631Z,7776
2017-06-19T09:24:54.408Z,7680
2017-06-19T09:27:20.738Z,7576
2017-06-19T09:29:47.053Z,7416
2017-06-19T09:32:04.823Z,7308
2017-06-19T09:34:31.104Z,7176
2017-06-19T09:36:57.448Z,7024
2017-06-19T09:39:23.771Z,6868
2017-06-19T09:41:42.530Z,6704
2017-06-19T09:44:08.771Z,6624
2017-06-19T09:46:26.533Z,6564
2017-06-19T09:48:52.819Z,6544
2017-06-19T09:51:10.535Z,6428
2017-06-19T09:53:37.844Z,6324
2017-06-19T09:56:04.018Z,6240
2017-06-19T09:58:22.628Z,6088
2017-06-19T10:00:48.796Z,6004
2017-06-19T10:03:15.944Z,5912
2017-06-19T10:05:33.524Z,5780
2017-06-19T10:07:59.598Z,5580
2017-06-19T10:10:19.171Z,5392
2017-06-19T10:12:46.216Z,5232
2017-06-19T10:17:15.620Z,4940
2017-06-19T10:19:41.641Z,4840
2017-06-19T10:21:58.951Z,4788
2017-06-19T10:24:25.810Z,4724
2017-06-19T10:26:52.758Z,4672
2017-06-19T10:29:19.575Z,4624
2017-06-19T10:31:45.405Z,4548
2017-06-19T10:34:11.104Z,4508
2017-06-19T10:36:29.353Z,4448
2017-06-19T10:38:46.556Z,4400
2017-06-19T10:41:12.275Z,4360
2017-06-19T10:43:39.940Z,4308
2017-06-19T10:46:05.535Z,4256
2017-06-19T10:48:31.163Z,4204
2017-06-19T10:50:56.678Z,4156
2017-06-19T10:53:22.203Z,4056
2017-06-19T10:57:41.513Z,3844
2017-06-19T10:59:58.485Z,3752
2017-06-19T11:02:23.992Z,3636
2017-06-19T11:04:49.521Z,3536
2017-06-19T11:07:15.003Z,3436
2017-06-19T11:09:40.410Z,3324
2017-06-19T11:12:05.838Z,3224
2017-06-19T11:14:31.352Z,3140
2017-06-19T11:16:58.844Z,3044
2017-06-19T11:19:15.815Z,2960
2017-06-19T11:21:43.320Z,2880
2017-06-19T11:24:08.820Z,2808
2017-06-19T11:26:35.355Z,2736
2017-06-19T11:28:53.387Z,2672
2017-06-19T11:31:18.903Z,2608
2017-06-19T11:33:45.356Z,2552
2017-06-19T11:36:10.744Z,2504
2017-06-19T11:38:36.162Z,2468
2017-06-19T11:40:53.064Z,2436
2017-06-19T11:43:09.980Z,2404
2017-06-19T11:45:35.391Z,2376
2017-06-19T11:48:00.703Z,2328
2017-06-19T11:50:27.035Z,2284
2017-06-19T11:52:53.308Z,2252
2017-06-19T11:55:18.675Z,2228
2017-06-19T11:57:44.797Z,2212
2017-06-19T12:00:13.742Z,2188
2017-06-19T12:02:38.303Z,2176
2017-06-19T12:07:06.206Z,2156
2017-06-19T12:09:34.144Z,2140
2017-06-19T12:11:58.255Z,2124
2017-06-19T12:14:23.668Z,2112
2017-06-19T12:16:49.078Z,2084
2017-06-19T12:19:14.483Z,2072
2017-06-19T12:21:39.902Z,2068
2017-06-19T12:24:05.315Z,2048
2017-06-19T12:28:24.411Z,2028
2017-06-19T12:30:49.815Z,2020
2017-06-19T12:33:06.730Z,2012
2017-06-19T12:35:33.152Z,2000
2017-06-19T12:38:05.223Z,2016
2017-06-19T12:40:30.648Z,2004
2017-06-19T12:42:47.557Z,2000
2017-06-19T12:45:12.961Z,1992
2017-06-19T12:47:39.292Z,1984
2017-06-19T12:50:04.716Z,1964
2017-06-19T12:52:30.130Z,1956
2017-06-19T12:54:38.417Z,1952
2017-06-19T12:57:03.705Z,1940
2017-06-19T12:59:20.565Z,1916
2017-06-19T13:03:21.973Z,1896
2017-06-19T13:05:47.324Z,1892
2017-06-19T13:08:12.656Z,1880
2017-06-19T13:10:37.962Z,1864
2017-06-19T13:13:03.303Z,1856
2017-06-19T13:15:28.669Z,1844
2017-06-19T13:17:55.020Z,1840
2017-06-19T13:20:20.313Z,1828
2017-06-19T13:22:37.240Z,1824
2017-06-19T13:25:02.663Z,1812
2017-06-19T13:27:28.074Z,1800
2017-06-19T13:29:44.885Z,1792
2017-06-19T13:32:10.296Z,1784
2017-06-19T13:34:35.705Z,1780
2017-06-19T13:36:52.534Z,1764
2017-06-19T13:39:17.925Z,1764
2017-06-19T13:41:43.261Z,1752
2017-06-19T13:43:54.044Z,1748
2017-06-19T13:46:19.317Z,1740
2017-06-19T13:50:47.774Z,1732
2017-06-19T13:53:13.127Z,1724
2017-06-19T13:55:38.432Z,1716
2017-06-19T13:57:46.631Z,1704
2017-06-19T14:00:11.843Z,1708
2017-06-19T14:02:37.154Z,1696
2017-06-19T14:05:02.458Z,1696
2017-06-19T14:07:27.782Z,1692
2017-06-19T14:09:53.104Z,1688
2017-06-19T14:12:09.862Z,1688
2017-06-19T14:16:36.879Z,1676
2017-06-19T14:19:02.296Z,1676
2017-06-19T14:21:27.693Z,1676
2017-06-19T14:23:44.506Z,1664
2017-06-19T14:26:09.822Z,1648
2017-06-19T14:28:35.247Z,1640
2017-06-19T14:31:00.574Z,1632
2017-06-19T14:33:25.975Z,1620
2017-06-19T14:35:51.285Z,1608
2017-06-19T14:38:16.587Z,1608
2017-06-19T14:40:33.384Z,1604
2017-06-19T14:42:58.709Z,1596
2017-06-19T14:45:15.526Z,1596
2017-06-19T14:47:40.945Z,1596
2017-06-19T14:50:07.281Z,1592
2017-06-19T14:52:32.573Z,1580
2017-06-19T14:54:50.441Z,1584
2017-06-19T14:57:15.767Z,1576
2017-06-19T14:59:41.149Z,1576
2017-06-19T15:01:58.060Z,1568
2017-06-19T15:04:24.041Z,1576
2017-06-19T15:06:49.419Z,1576
2017-06-19T15:09:16.490Z,1580
2017-06-19T15:11:47.614Z,1576
2017-06-19T15:14:04.513Z,1568
2017-06-19T15:16:31.862Z,1536
2017-06-19T15:18:57.177Z,776
2017-06-19T15:21:22.492Z,1464
2017-06-19T15:23:47.822Z,1468
2017-06-19T15:26:13.220Z,1460
2017-06-19T15:28:38.633Z,1448
2017-06-19T15:31:03.937Z,1448
2017-06-19T15:33:20.734Z,1388
2017-06-19T15:35:37.435Z,1416
2017-06-19T15:38:02.758Z,1408
2017-06-19T15:40:28.087Z,1320
2017-06-19T15:42:53.372Z,1396
2017-06-19T15:45:18.859Z,1396
2017-06-19T15:47:44.108Z,1380
2017-06-19T15:50:09.414Z,1288
2017-06-19T15:52:34.772Z,1272
2017-06-19T15:55:01.066Z,1140
2017-06-19T15:57:12.625Z,1180
2017-06-19T15:59:37.955Z,1376
2017-06-19T16:02:03.165Z,1372
2017-06-19T16:04:32.165Z,1380
2017-06-19T16:06:58.376Z,1384
2017-06-19T16:09:23.608Z,1376
2017-06-19T16:11:50.882Z,1428
2017-06-19T16:14:16.164Z,1428
2017-06-19T16:16:41.480Z,1420
2017-06-19T16:19:06.786Z,1424
2017-06-19T16:21:32.100Z,1424
2017-06-19T16:23:57.308Z,1416
2017-06-19T16:26:22.625Z,1416
2017-06-19T16:28:47.948Z,1412
2017-06-19T16:31:13.247Z,1404
2017-06-19T16:33:38.562Z,1396
2017-06-19T16:36:03.777Z,1396
2017-06-19T16:38:29.056Z,1396
2017-06-19T16:40:54.287Z,1384
2017-06-19T16:43:19.668Z,1380
2017-06-19T16:45:44.902Z,1376
2017-06-19T16:48:01.728Z,1368
2017-06-19T16:50:27.045Z,1364
2017-06-19T16:52:43.825Z,1364
2017-06-19T16:55:00.521Z,1356
2017-06-19T16:57:25.724Z,1348
2017-06-19T16:59:50.984Z,1204
2017-06-19T17:02:16.286Z,1200
2017-06-19T17:04:42.964Z,1328
2017-06-19T17:07:08.201Z,1324
2017-06-19T17:09:33.408Z,1320
2017-06-19T17:11:58.677Z,1312
2017-06-19T17:15:59.762Z,1304
2017-06-19T17:18:25.075Z,1304
2017-06-19T17:20:50.321Z,1132
2017-06-19T17:23:15.516Z,1292
2017-06-19T17:25:40.744Z,1280
2017-06-19T17:27:57.556Z,1272
2017-06-19T17:30:22.755Z,1264
2017-06-19T17:32:47.955Z,1248
2017-06-19T17:35:13.196Z,1244
2017-06-19T17:39:17.822Z,1224
2017-06-19T17:45:29.631Z,1196
2017-06-19T17:47:54.844Z,1184
2017-06-19T17:50:20.046Z,1176
2017-06-19T17:52:30.810Z,1164
2017-06-19T17:55:02.602Z,1152
2017-06-19T17:57:27.669Z,1140
2017-06-19T17:59:52.882Z,1124
2017-06-19T18:02:18.216Z,1112
2017-06-19T18:04:45.340Z,1100
2017-06-19T18:07:02.077Z,1088
2017-06-19T18:09:19.789Z,1068
2017-06-19T18:11:44.892Z,1048
2017-06-19T18:14:01.506Z,1036
2017-06-19T18:16:18.116Z,1016
2017-06-19T18:18:43.323Z,996
2017-06-19T18:21:10.470Z,972
2017-06-19T18:23:35.567Z,952
2017-06-19T18:26:00.693Z,932
2017-06-19T18:28:25.811Z,900
2017-06-19T18:30:50.903Z,876
2017-06-19T18:33:07.457Z,852
2017-06-19T18:35:32.630Z,820
2017-06-19T18:37:57.819Z,792
2017-06-19T18:41:55.772Z,736
2017-06-19T18:44:20.904Z,696
2017-06-19T18:46:46.012Z,660
2017-06-19T18:49:11.105Z,624
2017-06-19T18:51:36.193Z,580
2017-06-19T18:53:52.817Z,544
2017-06-19T18:56:09.328Z,504
2017-06-19T18:58:34.452Z,460
2017-06-19T19:00:42.563Z,420
2017-06-19T19:05:09.258Z,348
2017-06-19T19:07:34.407Z,308
2017-06-19T19:11:47.187Z,248
2017-06-19T19:14:12.237Z,216
2017-06-19T19:16:37.237Z,188
2017-06-19T19:19:02.218Z,156
